sensor_id;sensor_type;location;lat;lon;timestamp;pressure;altitude;pressure_sealevel;temperature;humidity
41062;BME280;26812;42.662;23.352;2023-05-14T00:01:03;95350.56;;;15.02;50.51
41062;BME280;26812;42.662;23.352;2023-05-14T00:03:29;95338.75;;;14.98;50.21
41062;BME280;26812;42.662;23.352;2023-05-14T00:05:54;95347.06;;;15.02;50.28
41062;BME280;26812;42.662;23.352;2023-05-14T00:08:20;95342.22;;;15.07;50.49
41062;BME280;26812;42.662;23.352;2023-05-14T00:10:45;95332.38;;;15.03;50.03
41062;BME280;26812;42.662;23.352;2023-05-14T00:13:11;95336.81;;;14.86;50.53
41062;BME280;26812;42.662;23.352;2023-05-14T00:15:36;95326.94;;;14.70;50.92
41062;BME280;26812;42.662;23.352;2023-05-14T00:18:02;95327.78;;;14.62;50.91
41062;BME280;26812;42.662;23.352;2023-05-14T00:20:27;95320.66;;;14.90;50.32
41062;BME280;26812;42.662;23.352;2023-05-14T00:22:53;95332.03;;;15.04;50.12
41062;BME280;26812;42.662;23.352;2023-05-14T00:25:18;95295.50;;;15.02;49.50
41062;BME280;26812;42.662;23.352;2023-05-14T00:27:43;95318.06;;;14.94;50.35
41062;BME280;26812;42.662;23.352;2023-05-14T00:30:09;95319.44;;;15.00;50.42
41062;BME280;26812;42.662;23.352;2023-05-14T00:32:35;95314.22;;;14.95;50.25
41062;BME280;26812;42.662;23.352;2023-05-14T00:35:00;95321.22;;;14.96;50.17
41062;BME280;26812;42.662;23.352;2023-05-14T00:37:28;95309.72;;;14.99;50.26
41062;BME280;26812;42.662;23.352;2023-05-14T00:39:53;95306.59;;;15.09;49.77
41062;BME280;26812;42.662;23.352;2023-05-14T00:42:19;95281.16;;;15.01;49.68
41062;BME280;26812;42.662;23.352;2023-05-14T00:44:44;95306.50;;;15.17;49.66
41062;BME280;26812;42.662;23.352;2023-05-14T00:47:10;95317.50;;;15.33;49.21
41062;BME280;26812;42.662;23.352;2023-05-14T00:49:35;95305.25;;;15.15;49.53
41062;BME280;26812;42.662;23.352;2023-05-14T00:52:01;95314.16;;;15.03;49.45
41062;BME280;26812;42.662;23.352;2023-05-14T00:54:28;95307.59;;;15.04;49.63
41062;BME280;26812;42.662;23.352;2023-05-14T00:56:54;95301.56;;;14.99;49.66
41062;BME280;26812;42.662;23.352;2023-05-14T00:59:20;95317.72;;;14.95;49.54
41062;BME280;26812;42.662;23.352;2023-05-14T01:01:45;95302.22;;;14.83;49.62
41062;BME280;26812;42.662;23.352;2023-05-14T01:04:11;95292.56;;;15.07;49.39
41062;BME280;26812;42.662;23.352;2023-05-14T01:07:06;95284.50;;;14.98;49.00
41062;BME280;26812;42.662;23.352;2023-05-14T01:12:29;95297.59;;;14.63;50.10
41062;BME280;26812;42.662;23.352;2023-05-14T01:15:10;95305.34;;;14.73;50.16
41062;BME280;26812;42.662;23.352;2023-05-14T01:17:40;95297.91;;;14.49;50.80
41062;BME280;26812;42.662;23.352;2023-05-14T01:20:07;95289.31;;;14.47;50.58
41062;BME280;26812;42.662;23.352;2023-05-14T01:22:33;95302.25;;;14.63;50.65
41062;BME280;26812;42.662;23.352;2023-05-14T01:24:58;95308.31;;;14.80;49.94
41062;BME280;26812;42.662;23.352;2023-05-14T01:27:34;95317.72;;;14.95;49.77
41062;BME280;26812;42.662;23.352;2023-05-14T01:32:32;95320.31;;;14.91;49.72
41062;BME280;26812;42.662;23.352;2023-05-14T01:34:59;95323.34;;;14.78;49.50
41062;BME280;26812;42.662;23.352;2023-05-14T01:37:26;95314.53;;;14.39;50.46
41062;BME280;26812;42.662;23.352;2023-05-14T01:39:53;95309.03;;;14.69;49.30
41062;BME280;26812;42.662;23.352;2023-05-14T01:42:20;95332.38;;;14.82;49.40
41062;BME280;26812;42.662;23.352;2023-05-14T01:44:46;95320.75;;;14.81;50.05
41062;BME280;26812;42.662;23.352;2023-05-14T01:47:11;95279.63;;;14.58;49.39
41062;BME280;26812;42.662;23.352;2023-05-14T01:49:37;95312.03;;;14.76;49.41
41062;BME280;26812;42.662;23.352;2023-05-14T01:52:02;95309.03;;;14.69;49.43
41062;BME280;26812;42.662;23.352;2023-05-14T01:54:28;95312.25;;;14.71;49.32
41062;BME280;26812;42.662;23.352;2023-05-14T01:56:53;95320.63;;;14.78;49.50
41062;BME280;26812;42.662;23.352;2023-05-14T01:59:19;95320.44;;;14.62;50.14
41062;BME280;26812;42.662;23.352;2023-05-14T02:01:44;95328.72;;;14.36;51.60
41062;BME280;26812;42.662;23.352;2023-05-14T02:04:10;95315.41;;;14.02;52.31
41062;BME280;26812;42.662;23.352;2023-05-14T02:06:35;95327.56;;;13.95;53.79
41062;BME280;26812;42.662;23.352;2023-05-14T02:09:01;95293.69;;;13.60;54.88
41062;BME280;26812;42.662;23.352;2023-05-14T02:11:26;95326.59;;;14.00;53.48
41062;BME280;26812;42.662;23.352;2023-05-14T02:13:51;95323.47;;;13.60;55.15
41062;BME280;26812;42.662;23.352;2023-05-14T02:16:17;95319.53;;;14.08;54.65
41062;BME280;26812;42.662;23.352;2023-05-14T02:18:43;95316.75;;;14.37;53.94
41062;BME280;26812;42.662;23.352;2023-05-14T02:21:08;95330.31;;;14.46;53.32
41062;BME280;26812;42.662;23.352;2023-05-14T02:23:34;95318.72;;;14.07;53.88
41062;BME280;26812;42.662;23.352;2023-05-14T02:25:59;95318.66;;;14.45;53.29
41062;BME280;26812;42.662;23.352;2023-05-14T02:28:25;95350.09;;;14.17;53.09
41062;BME280;26812;42.662;23.352;2023-05-14T02:30:59;95339.31;;;14.29;53.11
41062;BME280;26812;42.662;23.352;2023-05-14T02:33:26;95344.13;;;14.23;53.00
41062;BME280;26812;42.662;23.352;2023-05-14T02:35:51;95307.78;;;13.74;53.46
41062;BME280;26812;42.662;23.352;2023-05-14T02:38:16;95345.41;;;14.26;53.18
41062;BME280;26812;42.662;23.352;2023-05-14T02:40:48;95345.19;;;14.31;52.73
41062;BME280;26812;42.662;23.352;2023-05-14T02:43:14;95355.97;;;14.19;53.18
41062;BME280;26812;42.662;23.352;2023-05-14T02:45:39;95338.69;;;13.73;53.25
41062;BME280;26812;42.662;23.352;2023-05-14T02:48:05;95353.00;;;14.12;53.41
41062;BME280;26812;42.662;23.352;2023-05-14T02:50:30;95360.41;;;13.94;52.75
41062;BME280;26812;42.662;23.352;2023-05-14T02:52:55;95372.69;;;14.21;52.11
41062;BME280;26812;42.662;23.352;2023-05-14T02:55:22;95373.44;;;14.01;52.91
41062;BME280;26812;42.662;23.352;2023-05-14T02:57:48;95362.88;;;14.08;52.98
41062;BME280;26812;42.662;23.352;2023-05-14T03:00:14;95347.38;;;13.87;52.53
41062;BME280;26812;42.662;23.352;2023-05-14T03:02:39;95320.75;;;13.60;53.37
41062;BME280;26812;42.662;23.352;2023-05-14T03:05:06;95360.84;;;14.25;52.72
41062;BME280;26812;42.662;23.352;2023-05-14T03:07:31;95354.88;;;14.41;53.00
41062;BME280;26812;42.662;23.352;2023-05-14T03:09:57;95365.16;;;14.56;52.83
41062;BME280;26812;42.662;23.352;2023-05-14T03:12:24;95342.72;;;14.47;52.22
41062;BME280;26812;42.662;23.352;2023-05-14T03:14:49;95330.47;;;14.41;52.37
41062;BME280;26812;42.662;23.352;2023-05-14T03:17:15;95338.00;;;14.35;52.44
41062;BME280;26812;42.662;23.352;2023-05-14T03:19:40;95347.47;;;13.99;53.05
41062;BME280;26812;42.662;23.352;2023-05-14T03:22:06;95305.03;;;13.83;53.50
41062;BME280;26812;42.662;23.352;2023-05-14T03:24:31;95342.38;;;13.98;53.89
41062;BME280;26812;42.662;23.352;2023-05-14T03:26:56;95332.69;;;14.18;52.93
41062;BME280;26812;42.662;23.352;2023-05-14T03:29:22;95335.69;;;14.25;53.16
41062;BME280;26812;42.662;23.352;2023-05-14T03:31:47;95321.34;;;14.24;53.42
41062;BME280;26812;42.662;23.352;2023-05-14T03:34:14;95310.94;;;14.06;54.12
41062;BME280;26812;42.662;23.352;2023-05-14T03:36:39;95367.66;;;14.11;55.44
41062;BME280;26812;42.662;23.352;2023-05-14T03:39:04;95361.91;;;13.83;55.98
41062;BME280;26812;42.662;23.352;2023-05-14T03:41:31;95357.34;;;13.66;56.16
41062;BME280;26812;42.662;23.352;2023-05-14T03:43:56;95364.28;;;13.84;56.40
41062;BME280;26812;42.662;23.352;2023-05-14T03:46:22;95352.03;;;13.49;57.15
41062;BME280;26812;42.662;23.352;2023-05-14T03:48:47;95363.00;;;13.44;57.85
41062;BME280;26812;42.662;23.352;2023-05-14T03:51:13;95362.56;;;13.80;57.59
41062;BME280;26812;42.662;23.352;2023-05-14T03:53:38;95357.31;;;13.75;57.70
41062;BME280;26812;42.662;23.352;2023-05-14T03:56:03;95344.78;;;13.61;56.59
41062;BME280;26812;42.662;23.352;2023-05-14T03:58:29;95361.25;;;13.48;56.90
41062;BME280;26812;42.662;23.352;2023-05-14T04:00:55;95355.25;;;13.33;56.92
41062;BME280;26812;42.662;23.352;2023-05-14T04:03:20;95327.38;;;13.33;56.81
41062;BME280;26812;42.662;23.352;2023-05-14T04:05:45;95353.28;;;13.51;56.29
41062;BME280;26812;42.662;23.352;2023-05-14T04:08:11;95357.69;;;13.64;56.15
41062;BME280;26812;42.662;23.352;2023-05-14T04:10:36;95347.69;;;13.56;55.98
41062;BME280;26812;42.662;23.352;2023-05-14T04:13:02;95341.53;;;13.39;56.13
41062;BME280;26812;42.662;23.352;2023-05-14T04:15:27;95349.94;;;13.54;56.54
41062;BME280;26812;42.662;23.352;2023-05-14T04:17:52;95367.56;;;13.60;56.86
41062;BME280;26812;42.662;23.352;2023-05-14T04:20:18;95372.38;;;13.55;56.75
41062;BME280;26812;42.662;23.352;2023-05-14T04:22:43;95369.69;;;13.46;57.06
41062;BME280;26812;42.662;23.352;2023-05-14T04:25:09;95378.75;;;13.42;57.08
41062;BME280;26812;42.662;23.352;2023-05-14T04:27:34;95376.72;;;13.47;56.99
41062;BME280;26812;42.662;23.352;2023-05-14T04:29:59;95369.63;;;13.63;56.59
41062;BME280;26812;42.662;23.352;2023-05-14T04:32:25;95369.81;;;13.58;56.24
41062;BME280;26812;42.662;23.352;2023-05-14T04:34:50;95386.94;;;13.71;56.02
41062;BME280;26812;42.662;23.352;2023-05-14T04:37:16;95375.47;;;13.74;55.65
41062;BME280;26812;42.662;23.352;2023-05-14T04:39:41;95386.84;;;13.59;56.58
41062;BME280;26812;42.662;23.352;2023-05-14T04:42:07;95396.03;;;13.20;57.85
41062;BME280;26812;42.662;23.352;2023-05-14T04:44:33;95372.94;;;13.22;58.28
41062;BME280;26812;42.662;23.352;2023-05-14T04:46:59;95387.31;;;13.61;59.04
41062;BME280;26812;42.662;23.352;2023-05-14T04:49:24;95389.66;;;12.98;59.63
41062;BME280;26812;42.662;23.352;2023-05-14T04:51:50;95408.75;;;13.02;60.24
41062;BME280;26812;42.662;23.352;2023-05-14T04:54:15;95421.59;;;13.40;60.14
41062;BME280;26812;42.662;23.352;2023-05-14T04:56:41;95409.34;;;13.51;59.68
41062;BME280;26812;42.662;23.352;2023-05-14T04:59:06;95423.06;;;13.28;59.98
41062;BME280;26812;42.662;23.352;2023-05-14T05:01:32;95418.47;;;12.86;62.00
41062;BME280;26812;42.662;23.352;2023-05-14T05:03:57;95423.72;;;12.91;62.52
41062;BME280;26812;42.662;23.352;2023-05-14T05:06:22;95414.50;;;12.92;63.00
41062;BME280;26812;42.662;23.352;2023-05-14T05:08:48;95428.00;;;12.83;63.60
41062;BME280;26812;42.662;23.352;2023-05-14T05:11:13;95427.53;;;12.90;62.67
41062;BME280;26812;42.662;23.352;2023-05-14T05:13:39;95439.13;;;13.07;63.47
41062;BME280;26812;42.662;23.352;2023-05-14T05:16:04;95449.16;;;13.07;63.99
41062;BME280;26812;42.662;23.352;2023-05-14T05:18:30;95454.22;;;12.83;65.55
41062;BME280;26812;42.662;23.352;2023-05-14T05:20:55;95450.59;;;12.96;65.70
41062;BME280;26812;42.662;23.352;2023-05-14T05:23:21;95455.66;;;12.71;66.25
41062;BME280;26812;42.662;23.352;2023-05-14T05:25:46;95464.66;;;12.32;68.29
41062;BME280;26812;42.662;23.352;2023-05-14T05:28:11;95459.81;;;12.69;68.62
41062;BME280;26812;42.662;23.352;2023-05-14T05:30:37;95463.47;;;12.73;68.62
41062;BME280;26812;42.662;23.352;2023-05-14T05:33:02;95441.94;;;12.33;69.67
41062;BME280;26812;42.662;23.352;2023-05-14T05:35:30;95467.50;;;12.27;70.49
41062;BME280;26812;42.662;23.352;2023-05-14T05:37:56;95476.66;;;12.57;70.20
41062;BME280;26812;42.662;23.352;2023-05-14T05:40:22;95464.94;;;12.22;71.12
41062;BME280;26812;42.662;23.352;2023-05-14T05:42:47;95472.38;;;12.08;71.32
41062;BME280;26812;42.662;23.352;2023-05-14T05:45:13;95460.59;;;11.73;73.68
41062;BME280;26812;42.662;23.352;2023-05-14T05:47:38;95455.50;;;11.71;74.13
41062;BME280;26812;42.662;23.352;2023-05-14T05:50:04;95478.75;;;11.81;74.51
41062;BME280;26812;42.662;23.352;2023-05-14T05:52:30;95462.25;;;11.60;74.67
41062;BME280;26812;42.662;23.352;2023-05-14T05:54:55;95476.19;;;12.07;75.08
41062;BME280;26812;42.662;23.352;2023-05-14T05:57:21;95485.41;;;11.52;75.75
41062;BME280;26812;42.662;23.352;2023-05-14T05:59:47;95482.63;;;11.66;75.95
41062;BME280;26812;42.662;23.352;2023-05-14T06:02:13;95445.38;;;11.24;75.80
41062;BME280;26812;42.662;23.352;2023-05-14T06:04:38;95449.84;;;11.28;76.64
41062;BME280;26812;42.662;23.352;2023-05-14T06:07:03;95465.53;;;11.48;76.99
41062;BME280;26812;42.662;23.352;2023-05-14T06:09:29;95460.75;;;11.45;77.32
41062;BME280;26812;42.662;23.352;2023-05-14T06:11:54;95474.66;;;11.61;77.31
41062;BME280;26812;42.662;23.352;2023-05-14T06:14:20;95469.19;;;11.75;77.21
41062;BME280;26812;42.662;23.352;2023-05-14T06:16:45;95473.16;;;12.08;77.35
41062;BME280;26812;42.662;23.352;2023-05-14T06:19:11;95471.88;;;12.06;77.15
41062;BME280;26812;42.662;23.352;2023-05-14T06:21:36;95478.63;;;12.26;73.12
41062;BME280;26812;42.662;23.352;2023-05-14T06:24:02;95461.72;;;12.11;73.61
41062;BME280;26812;42.662;23.352;2023-05-14T06:26:28;95451.47;;;11.91;75.48
41062;BME280;26812;42.662;23.352;2023-05-14T06:28:53;95459.81;;;12.03;73.87
41062;BME280;26812;42.662;23.352;2023-05-14T06:31:19;95461.59;;;11.55;76.29
41062;BME280;26812;42.662;23.352;2023-05-14T06:33:44;95449.63;;;11.38;77.58
41062;BME280;26812;42.662;23.352;2023-05-14T06:36:10;95484.03;;;11.86;77.39
41062;BME280;26812;42.662;23.352;2023-05-14T06:38:35;95491.88;;;11.96;77.18
41062;BME280;26812;42.662;23.352;2023-05-14T06:41:01;95488.09;;;12.06;78.05
41062;BME280;26812;42.662;23.352;2023-05-14T06:43:27;95481.25;;;11.77;78.09
41062;BME280;26812;42.662;23.352;2023-05-14T06:45:52;95468.81;;;11.68;78.74
41062;BME280;26812;42.662;23.352;2023-05-14T06:48:18;95483.47;;;11.75;78.74
41062;BME280;26812;42.662;23.352;2023-05-14T06:50:45;95482.66;;;11.97;79.16
41062;BME280;26812;42.662;23.352;2023-05-14T06:53:10;95468.69;;;11.95;79.45
41062;BME280;26812;42.662;23.352;2023-05-14T06:55:36;95457.66;;;11.83;79.81
41062;BME280;26812;42.662;23.352;2023-05-14T06:58:02;95444.47;;;11.90;80.07
41062;BME280;26812;42.662;23.352;2023-05-14T07:00:29;95449.03;;;12.12;79.68
41062;BME280;26812;42.662;23.352;2023-05-14T07:02:54;95456.28;;;11.94;79.56
41062;BME280;26812;42.662;23.352;2023-05-14T07:05:19;95461.56;;;12.08;79.27
41062;BME280;26812;42.662;23.352;2023-05-14T07:07:45;95457.28;;;12.07;79.71
41062;BME280;26812;42.662;23.352;2023-05-14T07:10:11;95454.38;;;11.95;80.25
41062;BME280;26812;42.662;23.352;2023-05-14T07:12:36;95440.69;;;11.91;80.50
41062;BME280;26812;42.662;23.352;2023-05-14T07:15:02;95435.34;;;11.69;80.58
41062;BME280;26812;42.662;23.352;2023-05-14T07:17:27;95463.66;;;12.20;78.98
41062;BME280;26812;42.662;23.352;2023-05-14T07:19:53;95472.59;;;12.29;79.13
41062;BME280;26812;42.662;23.352;2023-05-14T07:22:20;95508.88;;;12.45;78.59
41062;BME280;26812;42.662;23.352;2023-05-14T07:24:46;95506.00;;;12.41;78.41
41062;BME280;26812;42.662;23.352;2023-05-14T07:27:11;95499.97;;;12.53;78.90
41062;BME280;26812;42.662;23.352;2023-05-14T07:29:36;95487.25;;;12.36;79.24
41062;BME280;26812;42.662;23.352;2023-05-14T07:32:02;95470.53;;;12.26;79.81
41062;BME280;26812;42.662;23.352;2023-05-14T07:34:28;95477.94;;;12.11;79.43
41062;BME280;26812;42.662;23.352;2023-05-14T07:36:53;95468.75;;;12.21;79.72
41062;BME280;26812;42.662;23.352;2023-05-14T07:39:20;95470.94;;;11.48;80.95
41062;BME280;26812;42.662;23.352;2023-05-14T07:41:45;95467.56;;;11.43;82.20
41062;BME280;26812;42.662;23.352;2023-05-14T07:44:11;95462.84;;;11.26;81.78
41062;BME280;26812;42.662;23.352;2023-05-14T07:46:36;95461.81;;;11.13;82.65
41062;BME280;26812;42.662;23.352;2023-05-14T07:49:02;95484.91;;;11.50;83.31
41062;BME280;26812;42.662;23.352;2023-05-14T07:51:27;95493.78;;;11.73;83.25
41062;BME280;26812;42.662;23.352;2023-05-14T07:53:53;95465.66;;;11.66;81.72
41062;BME280;26812;42.662;23.352;2023-05-14T07:56:21;95477.47;;;11.78;81.91
41062;BME280;26812;42.662;23.352;2023-05-14T07:58:46;95521.81;;;11.86;81.48
41062;BME280;26812;42.662;23.352;2023-05-14T08:01:11;95516.25;;;11.82;81.12
41062;BME280;26812;42.662;23.352;2023-05-14T08:03:37;95495.59;;;11.11;82.82
41062;BME280;26812;42.662;23.352;2023-05-14T08:06:03;95477.38;;;11.39;82.74
41062;BME280;26812;42.662;23.352;2023-05-14T08:08:29;95497.16;;;11.57;83.08
41062;BME280;26812;42.662;23.352;2023-05-14T08:10:54;95495.81;;;11.68;82.47
41062;BME280;26812;42.662;23.352;2023-05-14T08:13:20;95487.59;;;11.73;82.21
41062;BME280;26812;42.662;23.352;2023-05-14T08:15:45;95497.91;;;11.48;83.21
41062;BME280;26812;42.662;23.352;2023-05-14T08:18:18;95497.25;;;11.96;81.84
41062;BME280;26812;42.662;23.352;2023-05-14T08:20:44;95474.41;;;12.02;81.67
41062;BME280;26812;42.662;23.352;2023-05-14T08:23:16;95467.97;;;11.59;81.37
41062;BME280;26812;42.662;23.352;2023-05-14T08:25:48;95473.50;;;11.54;82.79
41062;BME280;26812;42.662;23.352;2023-05-14T08:28:13;95466.16;;;11.76;82.07
41062;BME280;26812;42.662;23.352;2023-05-14T08:30:39;95463.47;;;11.45;81.79
41062;BME280;26812;42.662;23.352;2023-05-14T08:33:04;95458.19;;;11.40;83.73
41062;BME280;26812;42.662;23.352;2023-05-14T08:35:36;95466.84;;;11.60;82.90
41062;BME280;26812;42.662;23.352;2023-05-14T08:38:02;95464.25;;;11.99;80.27
41062;BME280;26812;42.662;23.352;2023-05-14T08:40:27;95466.78;;;12.04;80.83
41062;BME280;26812;42.662;23.352;2023-05-14T08:42:53;95458.47;;;11.92;81.61
41062;BME280;26812;42.662;23.352;2023-05-14T08:45:20;95458.81;;;11.68;81.25
41062;BME280;26812;42.662;23.352;2023-05-14T08:47:50;95449.78;;;12.04;80.99
41062;BME280;26812;42.662;23.352;2023-05-14T08:50:16;95419.47;;;12.16;79.96
41062;BME280;26812;42.662;23.352;2023-05-14T08:52:43;95450.97;;;11.80;81.04
41062;BME280;26812;42.662;23.352;2023-05-14T08:55:10;95439.00;;;11.42;82.51
41062;BME280;26812;42.662;23.352;2023-05-14T08:57:36;95448.44;;;11.62;81.75
41062;BME280;26812;42.662;23.352;2023-05-14T09:00:03;95419.38;;;11.81;80.63
41062;BME280;26812;42.662;23.352;2023-05-14T09:02:40;95442.25;;;11.92;80.04
41062;BME280;26812;42.662;23.352;2023-05-14T09:05:07;95435.84;;;12.10;80.36
41062;BME280;26812;42.662;23.352;2023-05-14T09:07:33;95457.34;;;11.93;80.65
41062;BME280;26812;42.662;23.352;2023-05-14T09:10:00;95440.97;;;11.81;81.07
41062;BME280;26812;42.662;23.352;2023-05-14T09:12:26;95446.78;;;12.05;80.91
41062;BME280;26812;42.662;23.352;2023-05-14T09:14:52;95434.47;;;12.30;80.50
41062;BME280;26812;42.662;23.352;2023-05-14T09:17:18;95412.63;;;12.09;80.82
41062;BME280;26812;42.662;23.352;2023-05-14T09:19:44;95453.69;;;12.29;79.11
41062;BME280;26812;42.662;23.352;2023-05-14T09:22:16;95451.41;;;12.13;80.25
41062;BME280;26812;42.662;23.352;2023-05-14T09:24:41;95439.00;;;12.04;79.91
41062;BME280;26812;42.662;23.352;2023-05-14T09:27:08;95460.75;;;12.07;80.24
41062;BME280;26812;42.662;23.352;2023-05-14T09:29:39;95440.78;;;12.17;79.20
41062;BME280;26812;42.662;23.352;2023-05-14T09:32:04;95418.16;;;11.65;79.98
41062;BME280;26812;42.662;23.352;2023-05-14T09:34:33;95423.28;;;12.15;79.80
41062;BME280;26812;42.662;23.352;2023-05-14T09:37:03;95440.72;;;12.00;79.22
41062;BME280;26812;42.662;23.352;2023-05-14T09:39:29;95442.47;;;11.96;80.01
41062;BME280;26812;42.662;23.352;2023-05-14T09:41:55;95436.44;;;11.99;78.84
41062;BME280;26812;42.662;23.352;2023-05-14T09:44:21;95413.44;;;11.70;79.67
41062;BME280;26812;42.662;23.352;2023-05-14T09:46:47;95387.19;;;11.62;80.16
41062;BME280;26812;42.662;23.352;2023-05-14T09:49:13;95408.47;;;11.95;79.92
41062;BME280;26812;42.662;23.352;2023-05-14T09:51:39;95408.91;;;11.88;80.37
41062;BME280;26812;42.662;23.352;2023-05-14T09:54:05;95417.94;;;11.84;81.36
41062;BME280;26812;42.662;23.352;2023-05-14T09:56:32;95406.59;;;12.12;81.82
41062;BME280;26812;42.662;23.352;2023-05-14T09:58:58;95405.00;;;12.03;80.23
41062;BME280;26812;42.662;23.352;2023-05-14T10:01:23;95410.56;;;12.06;80.49
41062;BME280;26812;42.662;23.352;2023-05-14T10:03:49;95408.31;;;12.00;80.89
41062;BME280;26812;42.662;23.352;2023-05-14T10:06:18;95411.25;;;12.29;80.91
41062;BME280;26812;42.662;23.352;2023-05-14T10:08:47;95395.69;;;12.43;80.25
41062;BME280;26812;42.662;23.352;2023-05-14T10:11:16;95377.97;;;11.94;80.17
41062;BME280;26812;42.662;23.352;2023-05-14T10:13:51;95385.00;;;12.21;80.59
41062;BME280;26812;42.662;23.352;2023-05-14T10:16:26;95399.19;;;12.27;79.38
41062;BME280;26812;42.662;23.352;2023-05-14T10:18:55;95386.06;;;11.94;81.10
41062;BME280;26812;42.662;23.352;2023-05-14T10:21:25;95350.81;;;11.99;80.45
41062;BME280;26812;42.662;23.352;2023-05-14T10:23:52;95366.13;;;12.30;80.26
41062;BME280;26812;42.662;23.352;2023-05-14T10:26:18;95366.75;;;12.44;80.34
41062;BME280;26812;42.662;23.352;2023-05-14T10:28:45;95384.44;;;12.67;79.77
41062;BME280;26812;42.662;23.352;2023-05-14T10:31:12;95396.34;;;12.92;77.72
41062;BME280;26812;42.662;23.352;2023-05-14T10:33:49;95388.09;;;12.63;78.43
41062;BME280;26812;42.662;23.352;2023-05-14T10:36:16;95386.47;;;12.36;79.67
41062;BME280;26812;42.662;23.352;2023-05-14T10:38:41;95390.75;;;12.46;79.03
41062;BME280;26812;42.662;23.352;2023-05-14T10:41:14;95385.19;;;12.25;80.73
41062;BME280;26812;42.662;23.352;2023-05-14T10:43:42;95364.03;;;12.09;81.38
41062;BME280;26812;42.662;23.352;2023-05-14T10:46:11;95372.38;;;11.91;82.68
41062;BME280;26812;42.662;23.352;2023-05-14T10:48:42;95370.25;;;11.70;83.27
41062;BME280;26812;42.662;23.352;2023-05-14T10:51:09;95367.16;;;11.55;83.89
41062;BME280;26812;42.662;23.352;2023-05-14T10:53:41;95385.25;;;11.94;83.08
41062;BME280;26812;42.662;23.352;2023-05-14T10:56:09;95362.69;;;11.90;82.90
41062;BME280;26812;42.662;23.352;2023-05-14T10:58:39;95372.47;;;11.77;83.62
41062;BME280;26812;42.662;23.352;2023-05-14T11:01:06;95377.28;;;11.80;83.64
41062;BME280;26812;42.662;23.352;2023-05-14T11:03:41;95345.94;;;11.70;83.23
41062;BME280;26812;42.662;23.352;2023-05-14T11:06:09;95351.81;;;11.72;83.72
41062;BME280;26812;42.662;23.352;2023-05-14T11:08:36;95372.47;;;11.77;83.28
41062;BME280;26812;42.662;23.352;2023-05-14T11:11:02;95357.72;;;11.74;83.11
41062;BME280;26812;42.662;23.352;2023-05-14T11:13:27;95372.72;;;11.58;83.76
41062;BME280;26812;42.662;23.352;2023-05-14T11:15:53;95361.13;;;11.58;84.01
41062;BME280;26812;42.662;23.352;2023-05-14T11:18:29;95360.50;;;12.00;82.61
41062;BME280;26812;42.662;23.352;2023-05-14T11:20:59;95360.78;;;11.81;81.88
41062;BME280;26812;42.662;23.352;2023-05-14T11:23:25;95388.69;;;11.77;83.31
41062;BME280;26812;42.662;23.352;2023-05-14T11:25:57;95380.41;;;12.22;83.09
41062;BME280;26812;42.662;23.352;2023-05-14T11:28:24;95357.16;;;11.95;81.95
41062;BME280;26812;42.662;23.352;2023-05-14T11:30:51;95357.50;;;12.10;81.79
41062;BME280;26812;42.662;23.352;2023-05-14T11:33:17;95364.84;;;12.36;80.72
41062;BME280;26812;42.662;23.352;2023-05-14T11:35:44;95343.38;;;12.05;81.22
41062;BME280;26812;42.662;23.352;2023-05-14T11:38:17;95349.59;;;11.74;82.43
41062;BME280;26812;42.662;23.352;2023-05-14T11:40:53;95348.47;;;11.67;83.23
41062;BME280;26812;42.662;23.352;2023-05-14T11:43:19;95357.66;;;12.05;80.79
41062;BME280;26812;42.662;23.352;2023-05-14T11:45:50;95351.34;;;12.36;80.33
41062;BME280;26812;42.662;23.352;2023-05-14T11:48:16;95345.31;;;12.48;80.71
41062;BME280;26812;42.662;23.352;2023-05-14T11:51:01;95325.41;;;12.18;80.36
41062;BME280;26812;42.662;23.352;2023-05-14T11:53:29;95352.78;;;12.68;80.94
41062;BME280;26812;42.662;23.352;2023-05-14T11:55:55;95355.78;;;12.84;79.64
41062;BME280;26812;42.662;23.352;2023-05-14T11:58:23;95347.81;;;13.04;81.20
41062;BME280;26812;42.662;23.352;2023-05-14T12:00:49;95334.13;;;13.01;80.13
41062;BME280;26812;42.662;23.352;2023-05-14T12:03:15;95336.94;;;13.30;77.94
41062;BME280;26812;42.662;23.352;2023-05-14T12:06:02;95328.97;;;13.34;77.40
41062;BME280;26812;42.662;23.352;2023-05-14T12:08:31;95332.75;;;13.50;77.08
41062;BME280;26812;42.662;23.352;2023-05-14T12:10:58;95325.72;;;13.87;75.83
41062;BME280;26812;42.662;23.352;2023-05-14T12:13:28;95318.44;;;13.41;75.09
41062;BME280;26812;42.662;23.352;2023-05-14T12:15:59;95315.00;;;13.61;75.48
41062;BME280;26812;42.662;23.352;2023-05-14T12:18:28;95315.91;;;13.36;76.10
41062;BME280;26812;42.662;23.352;2023-05-14T12:20:54;95307.97;;;13.31;75.97
41062;BME280;26812;42.662;23.352;2023-05-14T12:23:30;95307.13;;;13.48;75.63
41062;BME280;26812;42.662;23.352;2023-05-14T12:26:05;95300.34;;;13.16;75.97
41062;BME280;26812;42.662;23.352;2023-05-14T12:28:32;95278.06;;;13.27;76.37
41062;BME280;26812;42.662;23.352;2023-05-14T12:30:58;95298.03;;;13.44;75.20
41062;BME280;26812;42.662;23.352;2023-05-14T12:33:25;95285.22;;;13.32;76.72
41062;BME280;26812;42.662;23.352;2023-05-14T12:35:57;95282.13;;;13.51;75.31
41062;BME280;26812;42.662;23.352;2023-05-14T12:38:26;95289.47;;;13.42;75.25
41062;BME280;26812;42.662;23.352;2023-05-14T12:40:51;95276.13;;;13.66;72.54
41062;BME280;26812;42.662;23.352;2023-05-14T12:43:17;95273.63;;;13.14;74.67
41062;BME280;26812;42.662;23.352;2023-05-14T12:45:43;95267.50;;;12.88;74.71
41062;BME280;26812;42.662;23.352;2023-05-14T12:48:08;95262.25;;;12.83;75.76
41062;BME280;26812;42.662;23.352;2023-05-14T12:50:34;95294.84;;;12.95;76.75
41062;BME280;26812;42.662;23.352;2023-05-14T12:52:59;95278.75;;;13.07;76.37